This is the latest recevied weather packets stored in our database for station/object SQ9IWE-13. If no packets are shown the sender has not sent any weather packets the latest 10 day(s).
| Time | Temp. | Humidity | Pressure | Rain* | Wind** | Luminosity | Snow |
|---|---|---|---|---|---|---|---|
| 1777414201 | 3.33° C | 58% | 1023.3 hPa | - | - | - | - |
| 1777411201 | 5° C | 52% | 1023.6 hPa | - | - | - | - |
| 1777407601 | 6.11° C | 47% | 1023.4 hPa | - | - | - | - |
| 1777407001 | 6.67° C | 47% | 1023.2 hPa | - | - | - | - |
| 1777405801 | 6.67° C | 46% | 1023.1 hPa | - | - | - | - |
| 1777405201 | 6.67° C | 46% | 1023.1 hPa | - | - | - | - |
| 1777404601 | 7.22° C | 46% | 1023 hPa | - | - | - | - |
| 1777404001 | 7.22° C | 45% | 1023 hPa | - | - | - | - |
| 1777403401 | 7.22° C | 43% | 1023 hPa | - | - | - | - |
| 1777401601 | 7.78° C | 41% | 1022.7 hPa | - | - | - | - |
| 1777400401 | 8.33° C | 40% | 1022.4 hPa | - | - | - | - |
| 1777399201 | 8.89° C | 37% | 1022.3 hPa | - | - | - | - |
| 1777398601 | 8.89° C | 37% | 1022.2 hPa | - | - | - | - |
| 1777390201 | 12.22° C | 31% | 1021.7 hPa | - | - | - | - |
| 1777386601 | 12.22° C | 31% | 1021.8 hPa | - | - | - | - |
| 1777386001 | 12.78° C | 31% | 1021.9 hPa | - | - | - | - |
| 1777385401 | 12.22° C | 31% | 1022 hPa | - | - | - | - |
| 1777384201 | 12.78° C | 31% | 1022.3 hPa | - | - | - | - |
| 1777382401 | 12.22° C | 31% | 1022.4 hPa | - | - | - | - |
| 1777381801 | 13.33° C | 31% | 1022.4 hPa | - | - | - | - |
| 1777381201 | 13.33° C | 30% | 1022.4 hPa | - | - | - | - |
| 1777380601 | 12.78° C | 30% | 1022.5 hPa | - | - | - | - |
| 1777380001 | 12.78° C | 30% | 1022.5 hPa | - | - | - | - |
| 1777378801 | 13.89° C | 29% | 1022.5 hPa | - | - | - | - |
| 1777378201 | 13.33° C | 30% | 1022.5 hPa | - | - | - | - |
* Rain since midnight (hover to see other rain measurements)
** Current wind speed in m/s (hover to see current wind gust speed)